Time;durP1;ratioP1;P1;durP2;ratioP2;P2;SDS_P1;SDS_P2;PMS_P1;PMS_P2;Temp;Humidity;BMP_temperature;BMP_pressure;BME280_temperature;BME280_humidity;BME280_pressure;Samples;Min_cycle;Max_cycle;Signal;HPM_P1;HPM_P2
2022/04/25 00:02:21;;;;;;;14.57;6.47;;;9.60;70.30;;;;;;2345982;57;21022;-74
2022/04/25 00:04:49;;;;;;;13.88;5.50;;;9.60;70.20;;;;;;2346539;57;21061;-73
2022/04/25 00:07:16;;;;;;;12.68;5.57;;;9.60;70.20;;;;;;2346200;57;21033;-73
2022/04/25 00:09:44;;;;;;;10.52;5.43;;;9.60;70.10;;;;;;2346275;57;21121;-73
2022/04/25 00:12:12;;;;;;;12.43;4.93;;;9.50;70.00;;;;;;2346482;57;21046;-73
2022/04/25 00:14:39;;;;;;;8.95;4.55;;;9.50;69.70;;;;;;2346592;57;21204;-74
2022/04/25 00:17:06;;;;;;;13.88;5.37;;;9.50;69.60;;;;;;2345072;57;21086;-73
2022/04/25 00:19:35;;;;;;;9.00;4.62;;;9.40;69.60;;;;;;2346457;57;21054;-73
2022/04/25 00:22:03;;;;;;;9.50;4.70;;;9.40;69.70;;;;;;2593721;52;21097;-73
2022/04/25 00:24:31;;;;;;;11.85;4.97;;;9.40;69.80;;;;;;2346652;57;21092;-74
2022/04/25 00:26:58;;;;;;;13.25;5.50;;;9.40;69.90;;;;;;2346014;57;21046;-73
2022/04/25 00:29:25;;;;;;;12.20;4.80;;;9.40;69.90;;;;;;2593464;53;21042;-73
2022/04/25 00:34:28;;;;;;;12.18;5.43;;;9.40;69.90;;;;;;2335815;57;28219;-73
2022/04/25 00:36:55;;;;;;;9.20;4.78;;;9.20;71.60;;;;;;2362293;56;21545;-75
2022/04/25 00:39:22;;;;;;;13.18;4.95;;;9.40;71.20;;;;;;2375155;56;21050;-75
2022/04/25 00:41:50;;;;;;;8.75;4.78;;;9.50;70.10;;;;;;2374949;56;21046;-75
2022/04/25 00:44:17;;;;;;;10.00;4.68;;;9.50;69.80;;;;;;2375311;56;21039;-75
2022/04/25 00:46:47;;;;;;;13.38;4.80;;;9.50;69.60;;;;;;2374991;56;21086;-75
2022/04/25 00:49:15;;;;;;;11.10;4.70;;;9.50;69.40;;;;;;2374272;56;21035;-73
2022/04/25 00:51:42;;;;;;;9.85;4.62;;;9.50;70.10;;;;;;2628753;52;21106;-74
2022/04/25 00:54:10;;;;;;;8.23;4.25;;;9.60;69.50;;;;;;2375201;56;21384;-73
2022/04/25 00:56:38;;;;;;;11.25;4.72;;;9.60;69.50;;;;;;2374855;56;21046;-74
2022/04/25 00:59:06;;;;;;;9.38;4.53;;;9.60;69.30;;;;;;2375301;56;21093;-74
2022/04/25 01:01:35;;;;;;;12.75;3.92;;;9.50;69.30;;;;;;2374232;56;21055;-74
2022/04/25 01:04:04;;;;;;;11.80;5.10;;;9.50;69.40;;;;;;2375011;56;21047;-74
2022/04/25 01:06:31;;;;;;;8.10;5.05;;;9.50;69.40;;;;;;2373617;56;21114;-73
2022/04/25 01:08:58;;;;;;;9.30;4.05;;;9.50;69.30;;;;;;2374878;56;21035;-73
2022/04/25 01:11:26;;;;;;;10.45;4.82;;;9.50;69.20;;;;;;2375168;56;21054;-74
2022/04/25 01:13:53;;;;;;;13.38;4.68;;;9.40;69.10;;;;;;2374904;56;21195;-74
2022/04/25 01:16:20;;;;;;;10.60;4.10;;;9.40;69.10;;;;;;2374731;56;21031;-74
2022/04/25 01:18:48;;;;;;;11.95;4.47;;;9.40;69.00;;;;;;2628483;52;21043;-74
2022/04/25 01:21:20;;;;;;;10.65;4.45;;;9.40;68.90;;;;;;2375350;56;21181;-73
2022/04/25 01:29:19;;;;;;;13.02;4.37;;;9.20;69.00;;;;;;2375152;56;21066;-75
2022/04/25 01:31:46;;;;;;;13.38;3.80;;;9.10;69.10;;;;;;2628215;52;21051;-76
2022/04/25 01:34:13;;;;;;;7.43;3.97;;;9.10;69.20;;;;;;2375178;56;21039;-74
2022/04/25 01:36:41;;;;;;;9.77;3.80;;;9.10;69.30;;;;;;2374242;56;21058;-75
2022/04/25 01:39:08;;;;;;;6.30;3.50;;;9.10;69.30;;;;;;2374930;56;21593;-75
2022/04/25 01:41:35;;;;;;;7.18;4.07;;;9.10;69.40;;;;;;2373903;56;21157;-75
2022/04/25 01:44:03;;;;;;;10.18;4.40;;;9.10;69.20;;;;;;2374722;56;21114;-75
2022/04/25 01:46:30;;;;;;;9.10;4.40;;;9.10;69.20;;;;;;2373405;56;21093;-75
2022/04/25 01:48:57;;;;;;;8.05;4.22;;;9.10;69.10;;;;;;2373986;56;21051;-75
2022/04/25 01:51:25;;;;;;;17.45;5.18;;;9.00;69.20;;;;;;2374161;56;21035;-74
2022/04/25 01:53:52;;;;;;;9.35;4.05;;;9.00;69.20;;;;;;2374020;56;21121;-74
2022/04/25 01:56:20;;;;;;;8.20;4.65;;;9.00;69.30;;;;;;2625555;52;21023;-74
2022/04/25 01:58:47;;;;;;;9.65;4.53;;;9.00;69.20;;;;;;2373890;56;21094;-74
2022/04/25 02:01:14;;;;;;;8.10;3.78;;;9.00;69.20;;;;;;2374260;56;21106;-75
2022/04/25 02:03:43;;;;;;;10.10;3.87;;;9.00;69.10;;;;;;2374221;56;21169;-74
2022/04/25 02:06:10;;;;;;;11.38;4.60;;;9.10;69.20;;;;;;2374092;56;21106;-75
2022/04/25 02:08:38;;;;;;;9.65;4.03;;;9.00;69.10;;;;;;2374298;56;21580;-75
2022/04/25 02:11:21;;;;;;;6.85;3.28;;;9.00;69.00;;;;;;2374310;56;21118;-75
2022/04/25 02:16:25;;;;;;;11.95;4.22;;;9.00;68.70;;;;;;2364491;56;22666;-73
2022/04/25 02:18:53;;;;;;;14.38;4.07;;;9.10;68.80;;;;;;2629215;52;21090;-73
2022/04/25 02:21:21;;;;;;;7.03;3.60;;;9.00;68.80;;;;;;2375289;56;21030;-75
2022/04/25 02:26:25;;;;;;;12.90;3.47;;;9.00;68.90;;;;;;2345828;57;22622;-74
2022/04/25 02:28:54;;;;;;;11.10;3.95;;;9.10;68.90;;;;;;2347900;57;21536;-75
2022/04/25 02:31:22;;;;;;;10.55;3.70;;;9.10;68.60;;;;;;2595549;53;21110;-75
2022/04/25 02:33:50;;;;;;;8.50;3.47;;;9.10;68.60;;;;;;2347901;57;21038;-75
2022/04/25 02:36:18;;;;;;;9.93;3.78;;;9.00;68.50;;;;;;2347154;57;21030;-75
2022/04/25 02:38:45;;;;;;;10.35;4.45;;;9.00;68.60;;;;;;2347712;57;21061;-75
2022/04/25 02:41:12;;;;;;;16.50;3.70;;;9.00;68.60;;;;;;2346127;57;21580;-75
2022/04/25 02:43:42;;;;;;;13.10;4.05;;;9.00;68.80;;;;;;2347750;57;21097;-75
2022/04/25 02:46:10;;;;;;;7.28;3.95;;;9.00;68.80;;;;;;2347461;56;21123;-74
2022/04/25 02:48:39;;;;;;;9.82;4.30;;;9.00;68.70;;;;;;2347541;57;21133;-75
2022/04/25 02:51:07;;;;;;;7.12;3.53;;;8.90;68.50;;;;;;2347823;57;21034;-75
2022/04/25 02:53:35;;;;;;;12.23;4.22;;;9.00;68.50;;;;;;2347546;57;21101;-75
2022/04/25 02:56:05;;;;;;;7.57;3.45;;;9.00;68.60;;;;;;2347245;57;21046;-75
2022/04/25 02:58:34;;;;;;;10.68;4.47;;;8.90;68.60;;;;;;2346904;57;21018;-75
2022/04/25 03:01:04;;;;;;;11.63;3.92;;;9.00;68.70;;;;;;2594139;52;21049;-75
2022/04/25 03:03:33;;;;;;;9.02;3.80;;;8.90;68.50;;;;;;2347702;57;21346;-75
2022/04/25 03:06:02;;;;;;;7.53;4.55;;;8.90;68.60;;;;;;2594455;52;21046;-75
2022/04/25 03:08:29;;;;;;;12.07;4.37;;;8.90;68.60;;;;;;2347464;57;21053;-75
2022/04/25 03:10:57;;;;;;;5.87;3.37;;;8.90;68.80;;;;;;2347798;57;21122;-75
2022/04/25 03:13:25;;;;;;;7.75;4.20;;;8.90;68.80;;;;;;2347059;57;21062;-75
2022/04/25 03:18:29;;;;;;;7.57;3.90;;;8.80;68.70;;;;;;2355767;57;22062;-73
2022/04/25 03:20:57;;;;;;;8.98;4.00;;;8.80;68.70;;;;;;2347746;57;21588;-75
2022/04/25 03:23:25;;;;;;;10.38;3.92;;;8.80;68.90;;;;;;2347376;57;21117;-75
2022/04/25 03:25:52;;;;;;;8.85;3.92;;;8.70;69.10;;;;;;2350115;56;21057;-73
2022/04/25 03:28:20;;;;;;;10.13;4.12;;;8.80;69.30;;;;;;2374798;56;21051;-73
2022/04/25 03:30:48;;;;;;;14.93;4.00;;;8.70;69.30;;;;;;2373985;56;21039;-74
2022/04/25 03:33:16;;;;;;;13.02;4.15;;;8.70;69.20;;;;;;2374025;56;21652;-74
2022/04/25 03:35:46;;;;;;;9.52;4.12;;;8.80;69.30;;;;;;2374782;56;21138;-73
2022/04/25 03:38:14;;;;;;;9.80;4.18;;;8.80;69.20;;;;;;2375088;56;21430;-73
2022/04/25 03:40:43;;;;;;;9.80;4.12;;;8.70;69.00;;;;;;2374995;56;21106;-74
2022/04/25 03:43:10;;;;;;;10.80;4.00;;;8.70;69.00;;;;;;2374878;56;21055;-74
2022/04/25 03:45:40;;;;;;;16.95;4.47;;;8.70;69.10;;;;;;2374743;56;21093;-74
2022/04/25 03:48:09;;;;;;;9.02;3.58;;;8.60;69.00;;;;;;2375437;56;21090;-74
2022/04/25 03:50:36;;;;;;;9.15;3.62;;;8.60;69.20;;;;;;2374065;56;21102;-73
2022/04/25 03:53:08;;;;;;;7.35;3.50;;;8.60;69.30;;;;;;2375124;56;21043;-73
2022/04/25 03:58:22;;;;;;;7.50;3.62;;;8.60;69.90;;;;;;2375063;56;21007;-74
2022/04/25 04:00:49;;;;;;;12.18;4.10;;;8.50;69.40;;;;;;2375328;56;21102;-74
2022/04/25 04:03:18;;;;;;;8.98;3.75;;;8.50;69.30;;;;;;2374872;56;21101;-73
2022/04/25 04:05:45;;;;;;;10.75;3.40;;;8.50;69.50;;;;;;2374963;56;21110;-73
2022/04/25 04:08:13;;;;;;;8.35;3.83;;;8.50;69.40;;;;;;2374160;56;21813;-73
2022/04/25 04:10:40;;;;;;;6.22;3.58;;;8.60;69.50;;;;;;2375118;56;21087;-74
2022/04/25 04:13:08;;;;;;;7.93;3.67;;;8.50;69.40;;;;;;2374981;56;21019;-74
2022/04/25 04:15:36;;;;;;;6.53;3.10;;;8.50;69.40;;;;;;2374280;56;21106;-73
2022/04/25 04:18:05;;;;;;;8.18;3.78;;;8.50;69.40;;;;;;2628716;52;21051;-76
2022/04/25 04:20:32;;;;;;;6.55;3.45;;;8.50;69.30;;;;;;2373871;56;21070;-75
2022/04/25 04:23:00;;;;;;;10.10;3.35;;;8.50;69.50;;;;;;2375039;56;21115;-75
2022/04/25 04:25:27;;;;;;;9.63;3.60;;;8.40;69.30;;;;;;2373890;56;21063;-75
2022/04/25 04:27:54;;;;;;;6.12;3.53;;;8.40;69.30;;;;;;2374250;56;21114;-72
2022/04/25 04:30:22;;;;;;;7.72;3.58;;;8.40;69.20;;;;;;2374244;56;21107;-73
2022/04/25 04:32:51;;;;;;;7.30;2.97;;;8.40;69.30;;;;;;2374404;56;21106;-74
2022/04/25 04:38:06;;;;;;;9.82;4.32;;;8.30;69.30;;;;;;2604652;51;21134;-77
2022/04/25 04:40:33;;;;;;;9.35;3.50;;;8.40;69.50;;;;;;2605388;53;21080;-74
2022/04/25 04:43:01;;;;;;;5.35;3.10;;;8.40;69.50;;;;;;2356502;57;21008;-74
2022/04/25 04:45:29;;;;;;;9.02;3.65;;;8.40;69.60;;;;;;2356669;57;21107;-74
2022/04/25 04:47:57;;;;;;;6.45;4.10;;;8.30;69.60;;;;;;2356470;57;21060;-73
2022/04/25 04:50:24;;;;;;;7.25;3.22;;;8.40;69.70;;;;;;2356202;57;21040;-73
2022/04/25 04:52:53;;;;;;;11.52;3.78;;;8.30;69.70;;;;;;2357862;57;21586;-74
2022/04/25 04:55:21;;;;;;;4.75;3.12;;;8.30;69.80;;;;;;2357513;57;21099;-73
2022/04/25 04:57:48;;;;;;;12.25;3.40;;;8.40;69.80;;;;;;2356482;57;21032;-73
2022/04/25 05:00:17;;;;;;;10.20;3.25;;;8.40;69.80;;;;;;2355265;57;21040;-74
2022/04/25 05:02:46;;;;;;;8.60;3.40;;;8.40;69.90;;;;;;2356594;57;21977;-73
2022/04/25 05:05:14;;;;;;;6.72;3.47;;;8.30;69.80;;;;;;2605365;53;21020;-73
2022/04/25 05:07:41;;;;;;;9.48;3.22;;;8.40;70.00;;;;;;2356966;57;21282;-74
2022/04/25 05:10:10;;;;;;;9.00;3.20;;;8.40;70.20;;;;;;2357575;57;21056;-73
2022/04/25 05:12:49;;;;;;;4.97;2.92;;;8.30;70.20;;;;;;2356686;57;21056;-74
2022/04/25 05:15:18;;;;;;;6.78;3.00;;;8.30;70.40;;;;;;2607340;53;21068;-74
2022/04/25 05:17:48;;;;;;;6.05;3.20;;;8.30;70.40;;;;;;2356712;57;21023;-74
2022/04/25 05:20:16;;;;;;;13.38;3.00;;;8.40;70.50;;;;;;2356809;57;21662;-74
2022/04/25 05:22:44;;;;;;;5.72;3.67;;;8.40;70.60;;;;;;2356880;57;21744;-73
2022/04/25 05:25:14;;;;;;;4.72;3.08;;;8.40;70.80;;;;;;2356174;57;21031;-74
2022/04/25 05:27:42;;;;;;;5.90;3.10;;;8.40;70.80;;;;;;2606475;53;21522;-73
2022/04/25 05:30:12;;;;;;;7.50;3.28;;;8.50;70.90;;;;;;2356659;57;21035;-74
2022/04/25 05:32:45;;;;;;;9.57;3.58;;;8.50;70.70;;;;;;2606472;53;21108;-73
2022/04/25 05:35:14;;;;;;;8.80;3.35;;;8.50;70.50;;;;;;2356551;57;21043;-73
2022/04/25 05:37:41;;;;;;;9.55;3.58;;;8.50;70.70;;;;;;2356643;57;21091;-77
2022/04/25 05:40:11;;;;;;;7.05;3.15;;;8.60;70.60;;;;;;2354966;57;21068;-74
2022/04/25 05:42:41;;;;;;;6.87;3.20;;;8.60;71.40;;;;;;2356352;57;21079;-74
2022/04/25 05:45:10;;;;;;;6.07;3.37;;;8.60;70.60;;;;;;2355808;57;21040;-75
2022/04/25 05:47:37;;;;;;;5.53;3.00;;;8.70;70.70;;;;;;2356920;57;21028;-73
2022/04/25 05:52:52;;;;;;;9.07;3.35;;;8.70;70.60;;;;;;2357222;57;20984;-74
2022/04/25 05:55:20;;;;;;;7.28;3.00;;;8.70;70.60;;;;;;2356718;57;21028;-74
2022/04/25 05:57:47;;;;;;;8.52;3.17;;;8.80;70.60;;;;;;2357143;57;21028;-74
2022/04/25 06:00:16;;;;;;;7.57;3.75;;;8.80;71.40;;;;;;2606905;53;21522;-74
2022/04/25 06:02:44;;;;;;;7.85;3.00;;;8.80;70.70;;;;;;2357148;57;21020;-73
2022/04/25 06:05:12;;;;;;;9.75;6.10;;;8.80;70.60;;;;;;2357646;57;21039;-74
2022/04/25 06:07:41;;;;;;;9.70;3.58;;;8.90;70.80;;;;;;2357198;57;21044;-74
2022/04/25 06:10:09;;;;;;;5.28;2.90;;;8.90;70.80;;;;;;2357779;57;21091;-73
2022/04/25 06:12:40;;;;;;;4.70;2.92;;;9.00;70.80;;;;;;2357954;57;21088;-74
2022/04/25 06:15:09;;;;;;;4.80;2.92;;;9.00;70.70;;;;;;2356672;57;21385;-74
2022/04/25 06:17:37;;;;;;;6.57;2.50;;;9.10;70.60;;;;;;2356923;57;21044;-73
2022/04/25 06:20:07;;;;;;;6.05;2.92;;;9.10;70.50;;;;;;2357636;57;21083;-73
2022/04/25 06:22:34;;;;;;;5.62;3.05;;;9.10;70.20;;;;;;2357820;57;21024;-74
2022/04/25 06:25:02;;;;;;;5.95;2.75;;;9.20;70.10;;;;;;2357692;57;21071;-73
2022/04/25 06:27:29;;;;;;;6.55;3.28;;;9.20;70.30;;;;;;2357157;57;21502;-73
2022/04/25 06:29:56;;;;;;;9.50;4.10;;;9.30;70.40;;;;;;2357913;57;21092;-74
2022/04/25 06:35:00;;;;;;;5.50;3.08;;;9.30;70.30;;;;;;2356457;57;23265;-73
2022/04/25 06:37:27;;;;;;;7.40;2.87;;;9.30;70.00;;;;;;2368747;56;21066;-75
2022/04/25 06:39:55;;;;;;;4.87;2.70;;;9.40;69.90;;;;;;2376023;56;21325;-75
2022/04/25 06:42:25;;;;;;;5.70;3.30;;;9.40;69.70;;;;;;2629656;52;21090;-75
2022/04/25 06:44:52;;;;;;;7.22;2.92;;;9.40;69.40;;;;;;2375515;56;21112;-75
2022/04/25 06:47:20;;;;;;;10.25;3.65;;;9.40;69.20;;;;;;2375116;56;21675;-74
2022/04/25 06:49:47;;;;;;;6.57;3.47;;;9.50;69.40;;;;;;2375687;56;21142;-74
2022/04/25 06:52:15;;;;;;;5.60;2.80;;;9.50;69.00;;;;;;2629447;52;21106;-73
2022/04/25 06:54:42;;;;;;;10.45;3.72;;;9.50;69.00;;;;;;2375422;56;21059;-73
2022/04/25 06:57:10;;;;;;;4.90;3.05;;;9.50;68.90;;;;;;2375428;56;21051;-73
2022/04/25 06:59:38;;;;;;;8.82;3.58;;;9.50;68.80;;;;;;2630060;52;21114;-73
2022/04/25 07:02:06;;;;;;;6.25;2.70;;;9.60;68.90;;;;;;2375972;56;21039;-73
2022/04/25 07:04:33;;;;;;;6.62;2.67;;;9.70;68.80;;;;;;2375531;56;21065;-73
2022/04/25 07:07:00;;;;;;;7.18;3.47;;;9.70;68.60;;;;;;2375366;56;21162;-73
2022/04/25 07:09:27;;;;;;;6.32;3.35;;;9.70;68.50;;;;;;2375767;56;21047;-74
2022/04/25 07:11:55;;;;;;;8.00;2.97;;;9.80;68.30;;;;;;2376062;56;21058;-73
2022/04/25 07:14:23;;;;;;;6.57;2.90;;;9.80;68.10;;;;;;2375696;56;21517;-74
2022/04/25 07:16:52;;;;;;;7.22;2.85;;;9.80;67.80;;;;;;2375116;56;21073;-73
2022/04/25 07:19:20;;;;;;;5.85;3.20;;;9.90;67.70;;;;;;2375852;56;21118;-74
2022/04/25 07:30:07;;;;;;;3.47;2.62;;;10.20;68.20;;;;;;2375956;56;21007;-74
2022/04/25 07:32:37;;;;;;;8.10;3.50;;;10.20;68.10;;;;;;2375841;56;21047;-74
2022/04/25 07:35:06;;;;;;;10.27;3.28;;;10.30;68.00;;;;;;2375829;56;21050;-75
2022/04/25 07:37:34;;;;;;;5.25;2.85;;;10.30;68.00;;;;;;2629598;52;21050;-74
2022/04/25 07:40:02;;;;;;;4.93;2.92;;;10.50;67.80;;;;;;2375247;56;21109;-74
2022/04/25 07:42:31;;;;;;;10.52;3.50;;;10.50;67.40;;;;;;2629710;52;21035;-75
2022/04/25 07:44:58;;;;;;;7.60;3.53;;;10.60;67.20;;;;;;2375639;56;21051;-75
2022/04/25 07:47:26;;;;;;;5.65;3.03;;;10.60;67.00;;;;;;2374753;56;21533;-75
2022/04/25 07:49:53;;;;;;;9.40;3.55;;;10.70;67.00;;;;;;2374985;56;21102;-74
2022/04/25 07:52:20;;;;;;;7.07;3.08;;;10.80;66.60;;;;;;2374921;56;21043;-74
2022/04/25 07:54:47;;;;;;;5.57;3.67;;;10.80;66.80;;;;;;2375285;56;21059;-75
2022/04/25 07:57:15;;;;;;;5.10;3.37;;;10.90;66.80;;;;;;2628127;52;21731;-75
2022/04/25 07:59:42;;;;;;;8.93;3.35;;;10.90;66.60;;;;;;2628586;52;21110;-75
2022/04/25 08:02:10;;;;;;;10.15;3.65;;;11.00;65.60;;;;;;2628399;52;21019;-74
2022/04/25 08:04:37;;;;;;;6.28;3.45;;;11.00;65.70;;;;;;2375192;56;21062;-75
2022/04/25 08:07:05;;;;;;;8.75;3.92;;;11.10;66.10;;;;;;2374725;56;21177;-75
2022/04/25 08:09:32;;;;;;;7.10;3.30;;;11.10;66.40;;;;;;2375334;56;21031;-75
2022/04/25 08:20:15;;;;;;;7.82;3.33;;;11.30;65.70;;;;;;2374954;56;21011;-75
2022/04/25 08:22:43;;;;;;;7.57;3.28;;;11.30;66.30;;;;;;2375213;56;21030;-74
2022/04/25 08:25:11;;;;;;;7.22;4.18;;;11.40;66.50;;;;;;2375094;56;21576;-74
2022/04/25 08:27:38;;;;;;;8.48;3.78;;;11.40;66.10;;;;;;2374533;56;21231;-75
2022/04/25 08:30:07;;;;;;;10.52;4.62;;;11.40;66.30;;;;;;2374956;56;21110;-74
2022/04/25 08:32:35;;;;;;;6.30;3.80;;;11.50;65.80;;;;;;2375043;56;21051;-74
2022/04/25 08:35:02;;;;;;;10.18;3.42;;;11.50;65.70;;;;;;2374952;56;21063;-74
2022/04/25 08:37:30;;;;;;;9.18;3.90;;;11.60;65.70;;;;;;2374762;56;21537;-74
2022/04/25 08:39:57;;;;;;;8.57;4.78;;;11.60;64.90;;;;;;2375218;56;21624;-74
2022/04/25 08:42:24;;;;;;;6.05;3.80;;;11.70;65.30;;;;;;2374609;56;21130;-75
2022/04/25 08:44:53;;;;;;;11.82;3.55;;;11.70;65.10;;;;;;2375189;56;21603;-74
2022/04/25 08:47:22;;;;;;;4.65;3.15;;;11.80;65.00;;;;;;2374628;56;21107;-75
2022/04/25 08:49:49;;;;;;;7.22;3.80;;;11.90;65.00;;;;;;2375261;56;21121;-75
2022/04/25 08:52:17;;;;;;;8.68;3.97;;;11.80;63.20;;;;;;2375264;56;21086;-75
2022/04/25 08:54:48;;;;;;;6.55;3.80;;;11.90;63.30;;;;;;2375413;56;21110;-74
2022/04/25 08:57:17;;;;;;;7.47;3.53;;;11.90;63.90;;;;;;2373489;56;21122;-74
2022/04/25 08:59:46;;;;;;;5.12;3.50;;;12.00;64.40;;;;;;2375009;56;21314;-74
2022/04/25 09:02:14;;;;;;;6.32;3.58;;;12.00;64.30;;;;;;2375125;56;21043;-75
2022/04/25 09:04:42;;;;;;;8.02;3.97;;;12.00;63.30;;;;;;2373650;56;21054;-75
2022/04/25 09:07:09;;;;;;;5.07;3.30;;;12.10;63.50;;;;;;2373801;56;21058;-75
2022/04/25 09:09:36;;;;;;;8.55;3.58;;;12.10;63.90;;;;;;2374584;56;21608;-74
2022/04/25 09:12:11;;;;;;;7.10;3.62;;;12.20;63.60;;;;;;2375146;56;21100;-75
2022/04/25 09:14:40;;;;;;;6.25;3.15;;;12.20;62.60;;;;;;2374610;56;21071;-73
2022/04/25 09:17:08;;;;;;;8.30;3.15;;;12.30;62.80;;;;;;2628052;52;21087;-75
2022/04/25 09:19:36;;;;;;;5.90;3.62;;;12.30;62.60;;;;;;2374810;56;21055;-75
2022/04/25 09:22:04;;;;;;;6.78;3.30;;;12.30;61.60;;;;;;2375142;56;21557;-75
2022/04/25 09:24:33;;;;;;;6.03;3.33;;;12.30;61.40;;;;;;2375323;56;21114;-74
2022/04/25 09:27:13;;;;;;;5.43;3.40;;;12.40;61.10;;;;;;2373279;56;21055;-75
2022/04/25 09:29:41;;;;;;;10.15;3.83;;;12.40;61.00;;;;;;2374227;56;21044;-75
2022/04/25 09:32:09;;;;;;;5.80;3.15;;;12.40;61.40;;;;;;2374490;56;21077;-75
2022/04/25 09:37:42;;;;;;;3.55;2.85;;;12.50;60.90;;;;;;2374353;56;21078;-74
2022/04/25 09:40:10;;;;;;;5.75;3.28;;;12.60;61.40;;;;;;2374923;56;21099;-75
2022/04/25 09:42:38;;;;;;;5.03;3.37;;;12.60;61.70;;;;;;2627662;52;21098;-75
2022/04/25 09:45:06;;;;;;;5.30;3.35;;;12.70;60.90;;;;;;2628212;52;21051;-74
2022/04/25 09:47:36;;;;;;;3.78;3.00;;;12.70;59.90;;;;;;2374587;56;21038;-74
2022/04/25 09:50:07;;;;;;;5.85;2.90;;;12.70;59.70;;;;;;2374317;56;21063;-75
2022/04/25 09:52:35;;;;;;;5.70;4.12;;;12.80;59.90;;;;;;2374899;56;21043;-74
2022/04/25 09:55:14;;;;;;;6.30;3.03;;;12.80;59.90;;;;;;2627254;52;21098;-74
2022/04/25 09:57:44;;;;;;;5.15;3.30;;;12.80;60.10;;;;;;2374597;56;21054;-74
2022/04/25 10:00:28;;;;;;;8.65;3.78;;;12.90;60.00;;;;;;2374650;56;21102;-75
2022/04/25 10:02:56;;;;;;;4.53;3.10;;;12.90;60.50;;;;;;2374368;56;21126;-74
2022/04/25 10:05:35;;;;;;;6.35;3.40;;;13.00;60.70;;;;;;2374269;56;21126;-74
2022/04/25 10:08:03;;;;;;;7.22;2.70;;;13.10;60.90;;;;;;2374230;56;21070;-74
2022/04/25 10:10:31;;;;;;;6.20;3.20;;;13.20;60.40;;;;;;2628289;52;21043;-75
2022/04/25 10:12:58;;;;;;;6.10;3.42;;;13.30;59.80;;;;;;2375140;56;21058;-75
2022/04/25 10:15:26;;;;;;;5.95;3.35;;;13.40;59.90;;;;;;2374778;56;21052;-75
2022/04/25 10:17:56;;;;;;;4.37;3.15;;;13.40;58.70;;;;;;2375293;56;21046;-75
2022/04/25 10:20:23;;;;;;;9.73;3.65;;;13.50;59.00;;;;;;2375176;56;21063;-74
2022/04/25 10:22:50;;;;;;;7.60;2.90;;;13.60;58.80;;;;;;2375436;56;21101;-75
2022/04/25 10:25:18;;;;;;;6.12;3.10;;;13.60;57.80;;;;;;2373468;56;21548;-75
2022/04/25 10:27:46;;;;;;;8.90;3.50;;;13.60;58.00;;;;;;2374989;56;21148;-73
2022/04/25 10:30:17;;;;;;;4.32;3.15;;;13.70;57.90;;;;;;2375394;56;21110;-74
2022/04/25 10:32:44;;;;;;;5.30;3.25;;;13.80;58.00;;;;;;2375134;56;21102;-73
2022/04/25 10:35:16;;;;;;;5.35;3.30;;;13.80;58.10;;;;;;2375046;56;21042;-73
2022/04/25 10:37:44;;;;;;;5.22;3.00;;;13.90;58.00;;;;;;2375143;56;21083;-73
2022/04/25 10:40:13;;;;;;;4.72;3.33;;;13.90;57.90;;;;;;2374678;56;21031;-73
2022/04/25 10:46:13;;;;;;;2.97;2.60;;;14.10;55.80;;;;;;2374212;56;21022;-74
2022/04/25 10:49:06;;;;;;;4.78;3.20;;;14.20;56.70;;;;;;2628015;52;21051;-73
2022/04/25 10:51:41;;;;;;;3.78;3.05;;;14.20;56.80;;;;;;2374466;56;21051;-74
2022/04/25 10:54:09;;;;;;;5.37;3.22;;;14.30;55.70;;;;;;2375086;56;21058;-73
2022/04/25 10:57:00;;;;;;;5.93;2.97;;;14.30;56.30;;;;;;2374775;56;21043;-73
2022/04/25 10:59:28;;;;;;;4.37;2.95;;;14.40;57.10;;;;;;2374905;56;21547;-74
2022/04/25 11:01:57;;;;;;;4.75;3.50;;;14.50;56.30;;;;;;2374663;56;21054;-74
2022/04/25 11:04:24;;;;;;;4.32;3.15;;;14.60;56.30;;;;;;2375338;56;21049;-74
2022/04/25 11:07:20;;;;;;;5.43;3.17;;;14.70;55.80;;;;;;2627751;52;21052;-74
2022/04/25 11:09:48;;;;;;;5.50;3.15;;;14.80;56.00;;;;;;2375166;56;21047;-74
2022/04/25 11:12:16;;;;;;;5.00;2.95;;;14.90;55.70;;;;;;2628039;52;21051;-74
2022/04/25 11:14:57;;;;;;;4.07;2.70;;;15.00;55.50;;;;;;2374737;56;21031;-74
2022/04/25 11:17:26;;;;;;;4.75;2.87;;;15.10;54.80;;;;;;2374748;56;21047;-74
2022/04/25 11:19:55;;;;;;;4.47;3.37;;;15.20;52.80;;;;;;2375064;56;21034;-73
2022/04/25 11:25:48;;;;;;;8.27;3.10;;;15.30;53.10;;;;;;2355703;57;22050;-73
2022/04/25 11:28:17;;;;;;;6.37;3.35;;;15.30;52.90;;;;;;2320465;58;21088;-73
2022/04/25 11:30:44;;;;;;;5.22;3.10;;;15.40;52.90;;;;;;2561978;54;21429;-73
2022/04/25 11:33:12;;;;;;;3.75;2.83;;;15.50;53.80;;;;;;2320565;58;21064;-73
2022/04/25 11:35:42;;;;;;;7.45;3.00;;;15.60;54.10;;;;;;2320021;58;21068;-73
2022/04/25 11:38:10;;;;;;;4.62;3.22;;;15.70;52.90;;;;;;2320693;58;21665;-73
2022/04/25 11:40:40;;;;;;;5.80;3.40;;;15.70;52.20;;;;;;2561985;54;21115;-73
2022/04/25 11:43:07;;;;;;;8.40;3.50;;;15.80;52.80;;;;;;2562066;54;21055;-73
2022/04/25 11:45:36;;;;;;;6.95;3.78;;;15.90;51.90;;;;;;2561827;54;21538;-73
2022/04/25 11:48:11;;;;;;;5.07;2.87;;;15.90;51.80;;;;;;2320530;58;21055;-73
2022/04/25 11:50:38;;;;;;;6.30;2.92;;;16.00;51.50;;;;;;2561533;54;21099;-74
2022/04/25 11:53:07;;;;;;;3.60;2.60;;;16.00;50.80;;;;;;2320598;58;21093;-73
2022/04/25 11:55:36;;;;;;;4.57;2.78;;;16.10;50.40;;;;;;2320597;58;21186;-73
2022/04/25 11:58:04;;;;;;;6.70;3.00;;;16.20;51.10;;;;;;2320675;58;21385;-74
2022/04/25 12:00:34;;;;;;;3.30;2.33;;;16.20;50.90;;;;;;2319380;58;21174;-74
2022/04/25 12:03:01;;;;;;;4.53;2.95;;;16.20;49.80;;;;;;2562388;54;21055;-73
2022/04/25 12:05:31;;;;;;;3.20;2.72;;;16.30;50.70;;;;;;2561751;53;21056;-73
2022/04/25 12:16:18;;;;;;;4.18;2.90;;;16.40;49.10;;;;;;2319265;58;21342;-73
2022/04/25 12:18:50;;;;;;;4.35;2.37;;;16.40;47.00;;;;;;2320500;58;21048;-73
2022/04/25 12:21:18;;;;;;;5.07;2.95;;;16.30;47.50;;;;;;2560653;54;21064;-73
2022/04/25 12:23:50;;;;;;;2.78;2.33;;;16.30;47.80;;;;;;2561500;54;21040;-72
2022/04/25 12:26:19;;;;;;;9.85;2.62;;;16.30;47.90;;;;;;2319609;57;21064;-72
2022/04/25 12:28:52;;;;;;;4.32;2.80;;;16.40;48.20;;;;;;2320130;58;21061;-73
2022/04/25 12:31:20;;;;;;;2.97;2.45;;;16.40;49.50;;;;;;2320479;58;21119;-73
2022/04/25 12:33:50;;;;;;;5.05;3.15;;;16.50;49.20;;;;;;2560209;54;21530;-73
2022/04/25 12:36:20;;;;;;;3.42;2.75;;;16.50;48.70;;;;;;2559719;54;21116;-76
2022/04/25 12:38:55;;;;;;;4.25;2.95;;;16.60;48.40;;;;;;2319397;58;21065;-75
2022/04/25 12:41:25;;;;;;;3.97;2.40;;;16.60;47.20;;;;;;2318020;58;21075;-75
2022/04/25 12:43:54;;;;;;;3.30;2.42;;;16.70;47.60;;;;;;2318273;58;21183;-75
2022/04/25 12:46:36;;;;;;;3.53;2.55;;;16.70;47.30;;;;;;2559531;53;21059;-77
2022/04/25 12:49:06;;;;;;;3.78;2.72;;;16.70;47.30;;;;;;2318720;58;21128;-74
2022/04/25 12:51:37;;;;;;;4.30;3.00;;;16.70;47.20;;;;;;2319198;58;21100;-73
2022/04/25 12:54:05;;;;;;;3.60;2.60;;;16.70;47.10;;;;;;2319102;58;21633;-74
2022/04/25 12:56:35;;;;;;;2.80;2.50;;;16.70;46.40;;;;;;2318372;58;21068;-74
2022/04/25 12:59:02;;;;;;;2.78;2.40;;;16.70;46.70;;;;;;2318796;58;21428;-74
2022/04/25 13:01:33;;;;;;;5.53;2.33;;;16.80;47.40;;;;;;2317909;58;21558;-74
2022/04/25 13:04:12;;;;;;;2.55;2.35;;;16.90;46.40;;;;;;2560196;53;21684;-75
2022/04/25 13:06:40;;;;;;;4.50;2.35;;;16.80;44.60;;;;;;2318407;58;21080;-74
2022/04/25 13:09:08;;;;;;;3.22;2.40;;;16.80;45.70;;;;;;2318870;58;21067;-73
2022/04/25 13:11:36;;;;;;;3.08;2.40;;;16.80;45.90;;;;;;2318269;58;21199;-75
2022/04/25 13:14:03;;;;;;;4.93;2.37;;;16.80;45.50;;;;;;2318940;58;21132;-75
2022/04/25 13:16:31;;;;;;;4.20;2.35;;;16.90;46.20;;;;;;2317916;58;21123;-74
2022/04/25 13:18:58;;;;;;;3.30;2.30;;;16.80;46.00;;;;;;2559623;54;21048;-74
2022/04/25 13:21:26;;;;;;;4.78;2.58;;;16.90;45.10;;;;;;2318798;58;21059;-74
2022/04/25 13:23:54;;;;;;;4.22;2.20;;;16.90;44.60;;;;;;2319030;58;21143;-74
2022/04/25 13:26:21;;;;;;;6.55;2.10;;;16.90;45.30;;;;;;2318559;58;21048;-75
2022/04/25 13:28:49;;;;;;;2.60;1.95;;;16.90;44.90;;;;;;2319081;58;21056;-74
2022/04/25 13:31:17;;;;;;;4.90;2.20;;;17.00;44.30;;;;;;2318915;58;21138;-74
2022/04/25 13:33:44;;;;;;;4.28;2.28;;;16.90;43.70;;;;;;2317904;58;21064;-75
2022/04/25 13:36:12;;;;;;;4.37;2.42;;;16.90;44.10;;;;;;2559601;54;21971;-74
2022/04/25 13:38:39;;;;;;;3.03;2.33;;;16.90;43.30;;;;;;2319344;58;21131;-74
2022/04/25 13:41:06;;;;;;;3.20;2.40;;;16.90;44.50;;;;;;2319355;58;21546;-74
2022/04/25 13:43:34;;;;;;;3.67;2.55;;;16.90;45.10;;;;;;2560415;53;21625;-76
2022/04/25 13:46:02;;;;;;;2.12;1.92;;;16.90;46.00;;;;;;2559987;54;21075;-76
2022/04/25 13:48:29;;;;;;;3.87;2.37;;;17.00;45.30;;;;;;2319285;58;21056;-77
2022/04/25 13:50:57;;;;;;;3.78;2.35;;;17.00;45.30;;;;;;2317916;58;21108;-74
2022/04/25 13:53:24;;;;;;;3.00;2.00;;;17.10;44.90;;;;;;2318918;58;21052;-75
2022/04/25 13:55:51;;;;;;;5.87;2.12;;;17.10;44.50;;;;;;2319187;58;22123;-74
2022/04/25 13:58:19;;;;;;;3.67;2.55;;;17.20;44.10;;;;;;2319046;58;21055;-74
2022/04/25 14:00:47;;;;;;;3.10;2.00;;;17.20;44.20;;;;;;2319430;58;21108;-74